createdAt,value
2018-07-21T00:00:08.076Z,97884.02
2018-07-21T00:02:36.738Z,97884.02
2018-07-21T00:05:05.418Z,97882.97
2018-07-21T00:07:34.081Z,97882.59
2018-07-21T00:10:02.717Z,97880.73
2018-07-21T00:12:31.359Z,97871.42
2018-07-21T00:15:00.052Z,97879.18
2018-07-21T00:17:28.699Z,97880.09
2018-07-21T00:19:57.317Z,97871.42
2018-07-21T00:22:25.907Z,97870.29
2018-07-21T00:24:54.499Z,97869.38
2018-07-21T00:27:23.083Z,97870.59
2018-07-21T00:29:51.700Z,97864.55
2018-07-21T00:32:20.268Z,97864.07
2018-07-21T00:34:48.985Z,97867.98
2018-07-21T00:37:17.600Z,97866.95
2018-07-21T00:39:46.184Z,97871.47
2018-07-21T00:42:14.892Z,97871.57
2018-07-21T00:44:43.691Z,97877.17
2018-07-21T00:47:12.326Z,97873.97
2018-07-21T00:49:41.006Z,97875.39
2018-07-21T00:52:09.652Z,97882.63
2018-07-21T00:54:38.224Z,97882.37
2018-07-21T00:57:06.901Z,97873.84
2018-07-21T00:59:35.514Z,97869.90
2018-07-21T01:02:04.202Z,97868.95
2018-07-21T01:04:32.919Z,97870.23
2018-07-21T01:07:01.541Z,97873.66
2018-07-21T01:09:30.173Z,97874.58
2018-07-21T01:11:58.786Z,97878.77
2018-07-21T01:14:27.385Z,97874.98
2018-07-21T01:16:56.115Z,97870.55
2018-07-21T01:19:24.848Z,97865.02
2018-07-21T01:21:53.578Z,97862.05
2018-07-21T01:24:22.252Z,97860.88
2018-07-21T01:26:50.809Z,97866.32
2018-07-21T01:29:23.228Z,97864.72
2018-07-21T01:31:51.851Z,97859.31
2018-07-21T01:34:20.432Z,97858.56
2018-07-21T01:36:49.029Z,97856.18
2018-07-21T01:39:17.681Z,97857.16
2018-07-21T01:41:46.431Z,97856.94
2018-07-21T01:44:15.079Z,97850.38
2018-07-21T01:46:44.136Z,97849.91
2018-07-21T01:49:12.730Z,97852.17
2018-07-21T01:51:41.390Z,97852.17
2018-07-21T01:54:09.951Z,97847.89
2018-07-21T01:56:38.608Z,97851.78
2018-07-21T01:59:07.154Z,97851.78
2018-07-21T02:01:35.772Z,97846.19
2018-07-21T02:04:04.326Z,97841.33
2018-07-21T02:06:33.072Z,97841.98
2018-07-21T02:09:01.776Z,97839.03
2018-07-21T02:11:30.386Z,97838.20
2018-07-21T02:13:59.074Z,97836.71
2018-07-21T02:16:27.812Z,97832.56
2018-07-21T02:18:56.443Z,97833.28
2018-07-21T02:21:25.158Z,97837.59
2018-07-21T02:23:53.732Z,97831.58
2018-07-21T02:26:22.350Z,97833.91
2018-07-21T02:28:51.036Z,97833.03
2018-07-21T02:31:19.865Z,97828.87
2018-07-21T02:33:48.546Z,97833.19
2018-07-21T02:36:17.243Z,97832.21
2018-07-21T02:38:45.865Z,97829.73
2018-07-21T02:41:14.629Z,97826.86
2018-07-21T02:43:43.204Z,97822.91
2018-07-21T02:46:17.961Z,97822.91
2018-07-21T02:48:46.611Z,97820.59
2018-07-21T02:51:15.434Z,97823.75
2018-07-21T02:53:44.011Z,97824.93
2018-07-21T02:56:12.576Z,97829.34
2018-07-21T02:58:41.195Z,97829.08
2018-07-21T03:01:09.781Z,97826.98
2018-07-21T03:03:38.374Z,97828.59
2018-07-21T03:06:06.983Z,97824.34
2018-07-21T03:08:35.688Z,97827.19
2018-07-21T03:11:04.327Z,97828.03
2018-07-21T03:13:34.185Z,97833.06
2018-07-21T03:16:02.872Z,97835.25
2018-07-21T03:18:31.430Z,97840.97
2018-07-21T03:20:59.992Z,97837.57
2018-07-21T03:23:28.674Z,97834.50
2018-07-21T03:25:57.406Z,97841.42
2018-07-21T03:28:26.023Z,97836.91
2018-07-21T03:30:54.630Z,97837.89
2018-07-21T03:33:23.196Z,97840.11
2018-07-21T03:35:52.002Z,97840.11
2018-07-21T03:38:20.650Z,97839.98
2018-07-21T03:40:49.251Z,97843.31
2018-07-21T03:43:17.868Z,97845.80
2018-07-21T03:45:46.633Z,97847.89
2018-07-21T03:48:15.256Z,97850.70
2018-07-21T03:50:43.877Z,97857.03
2018-07-21T03:53:12.563Z,97854.75
2018-07-21T03:55:41.178Z,97858.89
2018-07-21T03:58:09.938Z,97865.10
2018-07-21T04:00:38.521Z,97862.58
2018-07-21T04:03:07.160Z,97859.05
2018-07-21T04:05:35.694Z,97863.84
2018-07-21T04:08:04.443Z,97860.68
2018-07-21T04:10:33.027Z,97864.95
2018-07-21T04:13:01.873Z,97871.04
2018-07-21T04:15:30.395Z,97865.05
2018-07-21T04:17:58.932Z,97876.78
2018-07-21T04:20:27.527Z,97879.02
2018-07-21T04:22:56.209Z,97873.38
2018-07-21T04:25:24.986Z,97864.47
2018-07-21T04:27:53.633Z,97874.22
2018-07-21T04:30:22.270Z,97881.52
2018-07-21T04:32:50.944Z,97888.72
2018-07-21T04:35:19.558Z,97893.43
2018-07-21T04:37:48.141Z,97895.60
2018-07-21T04:40:16.752Z,97896.72
2018-07-21T04:42:45.441Z,97905.02
2018-07-21T04:45:14.088Z,97902.52
2018-07-21T04:47:42.685Z,97908.86
2018-07-21T04:50:11.288Z,97909.22
2018-07-21T04:52:40.057Z,97910.72
2018-07-21T04:55:08.773Z,97910.23
2018-07-21T04:57:37.310Z,97910.38
2018-07-21T05:00:06.743Z,97921.57
2018-07-21T05:02:35.344Z,97923.20
2018-07-21T05:05:04.184Z,97915.61
2018-07-21T05:07:32.860Z,97927.65
2018-07-21T05:10:01.471Z,97920.53
2018-07-21T05:12:30.148Z,97927.34
2018-07-21T05:14:58.818Z,97926.22
2018-07-21T05:17:27.556Z,97932.59
2018-07-21T05:19:56.373Z,97928.16
2018-07-21T05:22:25.018Z,97933.27
2018-07-21T05:24:53.590Z,97924.39
2018-07-21T05:27:22.379Z,97924.91
2018-07-21T05:29:50.904Z,97922.61
2018-07-21T05:32:19.598Z,97927.05
2018-07-21T05:34:48.287Z,97920.09
2018-07-21T05:37:16.885Z,97923.38
2018-07-21T05:39:46.039Z,97926.72
2018-07-21T05:42:14.798Z,97925.23
2018-07-21T05:44:43.422Z,97927.56
2018-07-21T05:47:12.125Z,97932.05
2018-07-21T05:49:40.738Z,97931.30
2018-07-21T05:52:09.485Z,97936.28
2018-07-21T05:54:38.167Z,97941.38
2018-07-21T05:57:06.951Z,97946.05
2018-07-21T05:59:35.515Z,97951.67
2018-07-21T06:02:04.257Z,97945.92
2018-07-21T06:04:32.803Z,97945.97
2018-07-21T06:07:01.435Z,97954.24
2018-07-21T06:09:30.021Z,97958.25
2018-07-21T06:11:58.618Z,97945.57
2018-07-21T06:14:27.261Z,97951.55
2018-07-21T06:16:55.937Z,97960.39
2018-07-21T06:19:24.732Z,97954.92
2018-07-21T06:21:53.391Z,97964.47
2018-07-21T06:24:22.159Z,97970.77
2018-07-21T06:26:50.880Z,97980.11
2018-07-21T06:29:19.547Z,97982.91
2018-07-21T06:31:48.089Z,97982.63
2018-07-21T06:34:16.938Z,97985.86
2018-07-21T06:36:45.862Z,97985.30
2018-07-21T06:39:14.799Z,97988.44
2018-07-21T06:41:43.435Z,97985.88
2018-07-21T06:44:12.058Z,97985.48
2018-07-21T06:46:40.720Z,97988.94
2018-07-21T06:49:09.391Z,97991.77
2018-07-21T06:51:38.055Z,97985.62
2018-07-21T06:54:06.929Z,97985.75
2018-07-21T06:56:35.672Z,97982.33
2018-07-21T06:59:04.309Z,97986.84
2018-07-21T07:01:32.926Z,97988.08
2018-07-21T07:04:01.469Z,97980.55
2018-07-21T07:06:30.140Z,97980.42
2018-07-21T07:08:58.772Z,97982.31
2018-07-21T07:11:27.491Z,97982.19
2018-07-21T07:13:56.225Z,97984.72
2018-07-21T07:16:24.856Z,97982.13
2018-07-21T07:18:53.396Z,97984.66
2018-07-21T07:21:22.204Z,97983.47
2018-07-21T07:23:50.825Z,97987.97
2018-07-21T07:26:19.592Z,97982.72
2018-07-21T07:28:48.548Z,97988.91
2018-07-21T07:31:17.092Z,97987.30
2018-07-21T07:33:45.625Z,97987.69
2018-07-21T07:36:14.260Z,97989.69
2018-07-21T07:38:42.830Z,97984.28
2018-07-21T07:41:11.401Z,97990.26
2018-07-21T07:43:39.980Z,97986.30
2018-07-21T07:46:08.750Z,97987.06
2018-07-21T07:48:37.597Z,97987.01
2018-07-21T07:51:06.262Z,97984.55
2018-07-21T07:53:35.948Z,97985.86
2018-07-21T07:56:04.591Z,97990.06
2018-07-21T07:58:33.443Z,97990.09
2018-07-21T08:01:02.095Z,97992.20
2018-07-21T08:03:30.818Z,97991.92
2018-07-21T08:05:59.454Z,97991.76
2018-07-21T08:08:28.113Z,98000.80
2018-07-21T08:10:56.914Z,98003.11
2018-07-21T08:13:25.720Z,98002.36
2018-07-21T08:15:54.301Z,97997.52
2018-07-21T08:18:23.027Z,97997.95
2018-07-21T08:20:51.516Z,97999.59
2018-07-21T08:23:20.176Z,98002.83
2018-07-21T08:25:48.702Z,98003.41
2018-07-21T08:28:17.280Z,98004.94
2018-07-21T08:30:45.888Z,98008.10
2018-07-21T08:33:14.510Z,98009.20
2018-07-21T08:35:43.116Z,98008.80
2018-07-21T08:38:11.838Z,98008.76
2018-07-21T08:40:40.507Z,98009.13
2018-07-21T08:43:09.225Z,98012.23
2018-07-21T08:45:37.908Z,98016.34
2018-07-21T08:48:06.537Z,98015.62
2018-07-21T08:50:35.116Z,98017.98
2018-07-21T08:53:03.891Z,98018.61
2018-07-21T08:55:32.456Z,98022.35
2018-07-21T08:58:01.224Z,98022.00
2018-07-21T09:00:30.166Z,98026.36
2018-07-21T09:02:58.756Z,98031.57
2018-07-21T09:05:27.404Z,98030.38
2018-07-21T09:07:56.068Z,98035.78
2018-07-21T09:10:24.818Z,98029.78
2018-07-21T09:12:53.572Z,98031.47
2018-07-21T09:15:22.258Z,98034.48
2018-07-21T09:17:50.934Z,98032.94
2018-07-21T09:20:19.642Z,98032.42
2018-07-21T09:22:48.299Z,98038.92
2018-07-21T09:25:16.950Z,98042.17
2018-07-21T09:27:45.512Z,98037.86
2018-07-21T09:30:14.127Z,98038.23
2018-07-21T09:32:42.922Z,98030.53
2018-07-21T09:35:11.482Z,98038.38
2018-07-21T09:37:40.295Z,98038.95
2018-07-21T09:40:09.052Z,98037.69
2018-07-21T09:42:37.837Z,98040.06
2018-07-21T09:45:06.725Z,98047.72
2018-07-21T09:47:35.518Z,98051.14
2018-07-21T09:50:04.428Z,98052.78
2018-07-21T09:52:33.241Z,98055.30
2018-07-21T09:55:01.815Z,98058.07
2018-07-21T09:57:30.392Z,98064.20
2018-07-21T09:59:59.315Z,98064.55
2018-07-21T10:02:28.009Z,98068.33
2018-07-21T10:04:57.317Z,98068.52
2018-07-21T10:07:26.056Z,98073.94
2018-07-21T10:09:54.872Z,98076.37
2018-07-21T10:12:23.464Z,98071.38
2018-07-21T10:14:52.168Z,98076.26
2018-07-21T10:17:20.773Z,98077.09
2018-07-21T10:19:49.430Z,98085.08
2018-07-21T10:22:18.099Z,98084.56
2018-07-21T10:24:51.994Z,98075.55
2018-07-21T10:27:20.616Z,98089.01
2018-07-21T10:29:49.656Z,98080.98
2018-07-21T10:32:18.353Z,98083.09
2018-07-21T10:34:46.926Z,98084.02
2018-07-21T10:37:15.606Z,98079.58
2018-07-21T10:39:44.349Z,98081.14
2018-07-21T10:42:12.990Z,98084.61
2018-07-21T10:44:41.524Z,98084.91
2018-07-21T10:47:10.183Z,98080.76
2018-07-21T10:49:38.818Z,98085.27
2018-07-21T10:52:07.478Z,98084.70
2018-07-21T10:54:36.064Z,98083.22
2018-07-21T10:57:04.683Z,98085.52
2018-07-21T10:59:33.227Z,98086.16
2018-07-21T11:02:01.908Z,98089.29
2018-07-21T11:04:30.509Z,98079.34
2018-07-21T11:06:59.146Z,98084.64
2018-07-21T11:09:27.967Z,98088.48
2018-07-21T11:11:56.559Z,98090.55
2018-07-21T11:14:25.301Z,98086.14
2018-07-21T11:16:53.967Z,98080.57
2018-07-21T11:19:22.607Z,98092.80
2018-07-21T11:21:51.265Z,98082.00
2018-07-21T11:24:19.891Z,98088.09
2018-07-21T11:26:48.524Z,98080.77
2018-07-21T11:29:17.161Z,98081.91
2018-07-21T11:31:45.883Z,98088.08
2018-07-21T11:34:14.605Z,98091.68
2018-07-21T11:36:43.142Z,98089.53
2018-07-21T11:39:11.851Z,98093.78
2018-07-21T11:41:40.628Z,98093.47
2018-07-21T11:44:09.395Z,98092.73
2018-07-21T11:46:37.967Z,98088.31
2018-07-21T11:49:06.559Z,98087.65
2018-07-21T11:51:35.143Z,98092.97
2018-07-21T11:54:03.731Z,98087.73
2018-07-21T11:56:32.426Z,98081.18
2018-07-21T11:59:01.189Z,98081.26
2018-07-21T12:01:30.037Z,98086.78
2018-07-21T12:03:58.643Z,98077.53
2018-07-21T12:06:27.289Z,98077.48
2018-07-21T12:08:55.882Z,98076.70
2018-07-21T12:11:24.534Z,98075.06
2018-07-21T12:13:53.158Z,98075.64
2018-07-21T12:16:21.829Z,98072.65
2018-07-21T12:18:50.517Z,98069.56
2018-07-21T12:21:19.289Z,98062.27
2018-07-21T12:23:47.972Z,98062.03
2018-07-21T12:26:16.807Z,98067.31
2018-07-21T12:28:45.316Z,98062.86
2018-07-21T12:31:13.922Z,98060.34
2018-07-21T12:33:42.681Z,98056.03
2018-07-21T12:36:11.399Z,98056.55
2018-07-21T12:38:40.226Z,98062.98
2018-07-21T12:41:08.904Z,98058.39
2018-07-21T12:43:37.563Z,98059.19
2018-07-21T12:46:06.317Z,98066.11
2018-07-21T12:48:35.075Z,98067.02
2018-07-21T12:51:03.934Z,98060.39
2018-07-21T12:53:32.595Z,98061.73
2018-07-21T12:56:01.312Z,98066.55
2018-07-21T12:58:30.188Z,98058.37
2018-07-21T13:00:58.749Z,98053.82
2018-07-21T13:03:27.657Z,98055.34
2018-07-21T13:05:56.225Z,98059.64
2018-07-21T13:08:24.995Z,98048.32
2018-07-21T13:10:53.704Z,98047.86
2018-07-21T13:13:22.423Z,98047.20
2018-07-21T13:15:51.192Z,98040.38
2018-07-21T13:18:19.913Z,98036.59
2018-07-21T13:20:48.887Z,98030.08
2018-07-21T13:23:17.842Z,98037.91
2018-07-21T13:25:46.593Z,98033.15
2018-07-21T13:28:15.300Z,98027.02
2018-07-21T13:30:44.065Z,98023.94
2018-07-21T13:33:12.867Z,98024.98
2018-07-21T13:35:41.596Z,98026.69
2018-07-21T13:38:10.428Z,98024.30
2018-07-21T13:40:39.207Z,98028.07
2018-07-21T13:43:08.075Z,98029.75
2018-07-21T13:45:36.746Z,98031.17
2018-07-21T13:48:05.536Z,98036.40
2018-07-21T13:50:34.086Z,98040.41
2018-07-21T13:53:02.716Z,98035.18
2018-07-21T13:55:31.360Z,98041.02
2018-07-21T13:57:59.961Z,98032.06
2018-07-21T14:00:29.622Z,98031.25
2018-07-21T14:02:58.322Z,98028.97
2018-07-21T14:05:27.135Z,98023.19
2018-07-21T14:07:55.944Z,98028.31
2018-07-21T14:10:24.849Z,98022.41
2018-07-21T14:12:53.425Z,98019.47
2018-07-21T14:15:22.055Z,98013.59
2018-07-21T14:17:50.818Z,98018.06
2018-07-21T14:20:19.777Z,98014.98
2018-07-21T14:22:48.862Z,98012.94
2018-07-21T14:25:17.465Z,98007.11
2018-07-21T14:27:46.241Z,97997.39
2018-07-21T14:30:18.317Z,97991.98
2018-07-21T14:32:48.111Z,97996.52
2018-07-21T14:35:17.924Z,97992.48
2018-07-21T14:37:46.462Z,98002.17
2018-07-21T14:40:15.006Z,98005.75
2018-07-21T14:42:43.639Z,98004.61
2018-07-21T14:45:12.276Z,98003.86
2018-07-21T14:47:40.809Z,97999.00
2018-07-21T14:50:09.522Z,98008.58
2018-07-21T14:52:38.175Z,98005.31
2018-07-21T14:55:07.027Z,98008.45
2018-07-21T14:57:35.679Z,98009.08
2018-07-21T15:00:05.519Z,98015.66
2018-07-21T15:02:34.112Z,98010.36
2018-07-21T15:05:02.782Z,98018.31
2018-07-21T15:07:31.670Z,98013.31
2018-07-21T15:10:00.368Z,98013.22
2018-07-21T15:12:29.081Z,98011.25
2018-07-21T15:14:57.734Z,98010.94
2018-07-21T15:17:26.535Z,98011.61
2018-07-21T15:19:55.318Z,98013.95
2018-07-21T15:22:24.093Z,98008.77
2018-07-21T15:24:52.953Z,98003.83
2018-07-21T15:27:21.779Z,98004.67
2018-07-21T15:29:50.686Z,98005.91
2018-07-21T15:32:19.512Z,98007.97
2018-07-21T15:34:48.338Z,98008.86
2018-07-21T15:37:17.105Z,98011.60
2018-07-21T15:39:45.829Z,98010.95
2018-07-21T15:42:14.612Z,98009.75
2018-07-21T15:44:43.367Z,98002.87
2018-07-21T15:47:12.042Z,98005.64
2018-07-21T15:49:41.014Z,98005.05
2018-07-21T15:52:09.791Z,98007.02
2018-07-21T15:54:38.373Z,98009.38
2018-07-21T15:57:07.244Z,98007.51
2018-07-21T15:59:35.946Z,98005.38
2018-07-21T16:02:04.588Z,98002.81
2018-07-21T16:04:33.261Z,97998.89
2018-07-21T16:07:01.922Z,97994.44
2018-07-21T16:09:30.707Z,97995.84
2018-07-21T16:11:59.276Z,97993.20
2018-07-21T16:14:27.955Z,97988.83
2018-07-21T16:16:56.657Z,97990.12
2018-07-21T16:19:25.401Z,97994.28
2018-07-21T16:21:54.410Z,97989.69
2018-07-21T16:24:23.225Z,97991.00
2018-07-21T16:26:51.804Z,97989.70
2018-07-21T16:29:20.431Z,97994.25
2018-07-21T16:31:49.193Z,97995.97
2018-07-21T16:34:18.100Z,97992.97
2018-07-21T16:36:46.700Z,97995.30
2018-07-21T16:39:15.513Z,97998.74
2018-07-21T16:41:44.209Z,97998.98
2018-07-21T16:44:12.959Z,97996.61
2018-07-21T16:46:41.618Z,98001.77
2018-07-21T16:49:10.351Z,97999.12
2018-07-21T16:51:39.157Z,97997.50
2018-07-21T16:54:07.804Z,97995.25
2018-07-21T16:56:36.603Z,98000.80
2018-07-21T16:59:05.329Z,98008.26
2018-07-21T17:01:34.089Z,98004.64
2018-07-21T17:04:02.788Z,98005.72
2018-07-21T17:06:31.577Z,98008.77
2018-07-21T17:09:00.276Z,98004.73
2018-07-21T17:11:29.102Z,97998.81
2018-07-21T17:13:57.854Z,97995.45
2018-07-21T17:16:26.612Z,98005.39
2018-07-21T17:18:55.437Z,98012.36
2018-07-21T17:21:24.333Z,98010.27
2018-07-21T17:23:53.015Z,98006.89
2018-07-21T17:26:21.771Z,98007.74
2018-07-21T17:28:50.377Z,98013.98
2018-07-21T17:31:19.556Z,98015.09
2018-07-21T17:33:48.372Z,98018.24
2018-07-21T17:36:22.624Z,98019.55
2018-07-21T17:38:51.771Z,98024.91
2018-07-21T17:41:22.461Z,98033.55
2018-07-21T17:43:51.133Z,98031.33
2018-07-21T17:46:20.458Z,98030.29
2018-07-21T17:48:49.083Z,98030.64
2018-07-21T17:51:17.893Z,98032.69
2018-07-21T17:53:46.597Z,98033.02
2018-07-21T17:56:15.402Z,98032.34
2018-07-21T17:58:44.082Z,98034.06
2018-07-21T18:01:13.031Z,98034.02
2018-07-21T18:03:42.076Z,98029.06
2018-07-21T18:06:10.832Z,98029.41
2018-07-21T18:08:39.700Z,98029.22
2018-07-21T18:11:08.370Z,98025.22
2018-07-21T18:13:36.940Z,98029.47
2018-07-21T18:16:05.658Z,98028.73
2018-07-21T18:18:34.219Z,98031.34
2018-07-21T18:21:02.915Z,98028.58
2018-07-21T18:23:31.593Z,98032.52
2018-07-21T18:26:00.238Z,98029.95
2018-07-21T18:28:28.920Z,98038.95
2018-07-21T18:30:57.592Z,98035.41
2018-07-21T18:33:26.257Z,98039.48
2018-07-21T18:36:16.085Z,98027.64
2018-07-21T18:39:08.184Z,98034.22
2018-07-21T18:41:37.116Z,98032.87
2018-07-21T18:44:06.022Z,98027.75
2018-07-21T18:46:34.764Z,98022.67
2018-07-21T18:49:05.183Z,98032.37
2018-07-21T18:51:34.113Z,98037.25
2018-07-21T18:54:03.384Z,98029.89
2018-07-21T18:56:31.984Z,98030.56
2018-07-21T18:59:00.988Z,98032.53
2018-07-21T19:01:29.798Z,98029.84
2018-07-21T19:03:58.355Z,98024.79
2018-07-21T19:06:26.921Z,98033.97
2018-07-21T19:09:21.452Z,98035.61
2018-07-21T19:11:55.077Z,98037.42
2018-07-21T19:14:23.373Z,98037.20
2018-07-21T19:16:58.336Z,98042.24
2018-07-21T19:19:30.813Z,98041.80
2018-07-21T19:21:59.118Z,98042.22
2018-07-21T19:24:27.569Z,98050.43
2018-07-21T19:27:01.163Z,98057.53
2018-07-21T19:29:29.526Z,98059.33
2018-07-21T19:32:03.202Z,98054.57
2018-07-21T19:34:32.645Z,98061.36
2018-07-21T19:37:04.644Z,98064.90
2018-07-21T19:39:33.088Z,98062.41
2018-07-21T19:42:05.140Z,98068.36
2018-07-21T19:44:33.705Z,98070.22
2018-07-21T19:47:01.992Z,98073.95
2018-07-21T19:49:30.581Z,98072.87
2018-07-21T19:51:59.420Z,98070.98
2018-07-21T19:54:31.243Z,98075.92
2018-07-21T19:56:59.891Z,98074.63
2018-07-21T19:59:29.200Z,98077.93
2018-07-21T20:01:58.113Z,98076.52
2018-07-21T20:04:26.392Z,98081.58
2018-07-21T20:06:54.699Z,98085.59
2018-07-21T20:09:23.116Z,98080.47
2018-07-21T20:11:51.418Z,98089.55
2018-07-21T20:14:19.995Z,98099.72
2018-07-21T20:16:48.847Z,98095.41
2018-07-21T20:19:17.268Z,98090.63
2018-07-21T20:21:45.583Z,98089.88
2018-07-21T20:24:13.896Z,98090.61
2018-07-21T20:26:42.196Z,98089.69
2018-07-21T20:29:10.543Z,98093.94
2018-07-21T20:31:39.677Z,98096.50
2018-07-21T20:34:08.039Z,98094.34
2018-07-21T20:36:36.453Z,98091.34
2018-07-21T20:39:07.523Z,98095.05
2018-07-21T20:41:35.937Z,98101.83
2018-07-21T20:44:04.372Z,98107.66
2018-07-21T20:46:32.808Z,98105.44
2018-07-21T20:49:01.207Z,98113.66
2018-07-21T20:51:29.641Z,98109.86
2018-07-21T20:53:58.273Z,98108.96
2018-07-21T20:56:26.751Z,98111.91
2018-07-21T20:58:55.681Z,98111.45
2018-07-21T21:01:24.050Z,98115.92
2018-07-21T21:03:55.949Z,98109.23
2018-07-21T21:06:24.380Z,98114.23
2018-07-21T21:08:52.617Z,98110.11
2018-07-21T21:11:21.010Z,98116.33
2018-07-21T21:13:49.323Z,98119.58
2018-07-21T21:16:17.652Z,98116.36
2018-07-21T21:18:45.965Z,98110.80
2018-07-21T21:21:14.385Z,98117.31
2018-07-21T21:23:42.651Z,98118.60
2018-07-21T21:26:11.063Z,98118.23
2018-07-21T21:28:40.420Z,98114.11
2018-07-21T21:31:08.837Z,98114.56
2018-07-21T21:33:39.055Z,98111.07
2018-07-21T21:36:08.550Z,98113.94
2018-07-21T21:38:38.803Z,98108.70
2018-07-21T21:41:08.324Z,98110.11
2018-07-21T21:43:37.720Z,98114.28
2018-07-21T21:46:06.443Z,98111.23
2018-07-21T21:48:35.844Z,98112.47
2018-07-21T21:51:04.261Z,98111.02
2018-07-21T21:53:33.768Z,98114.53
2018-07-21T21:56:02.466Z,98114.62
2018-07-21T21:58:31.945Z,98116.36
2018-07-21T22:01:05.266Z,98114.33
2018-07-21T22:03:33.728Z,98116.63
2018-07-21T22:06:02.848Z,98112.42
2018-07-21T22:08:32.125Z,98118.61
2018-07-21T22:11:00.654Z,98120.53
2018-07-21T22:13:29.610Z,98118.28
2018-07-21T22:15:59.610Z,98123.68
2018-07-21T22:18:28.900Z,98120.81
2018-07-21T22:20:57.419Z,98120.72
2018-07-21T22:23:25.758Z,98119.73
2018-07-21T22:25:54.577Z,98121.98
2018-07-21T22:28:22.908Z,98121.60
2018-07-21T22:30:51.228Z,98120.18
2018-07-21T22:33:19.573Z,98115.96
2018-07-21T22:35:47.868Z,98114.98
2018-07-21T22:38:16.880Z,98110.00
2018-07-21T22:40:45.258Z,98113.81
2018-07-21T22:43:13.644Z,98112.00
2018-07-21T22:45:46.227Z,98111.22
2018-07-21T22:48:14.892Z,98113.48
2018-07-21T22:50:43.253Z,98115.31
2018-07-21T22:53:11.692Z,98120.13
2018-07-21T22:55:40.052Z,98117.56
2018-07-21T22:58:12.352Z,98110.08
2018-07-21T23:00:40.782Z,98110.20
2018-07-21T23:03:09.117Z,98106.00
2018-07-21T23:05:38.114Z,98109.89
2018-07-21T23:08:07.617Z,98102.55
2018-07-21T23:10:36.499Z,98108.03
2018-07-21T23:13:05.032Z,98106.96
2018-07-21T23:15:35.289Z,98104.17
2018-07-21T23:18:03.703Z,98103.77
2018-07-21T23:20:32.101Z,98099.34
2018-07-21T23:23:00.446Z,98102.61
2018-07-21T23:25:29.594Z,98100.69
2018-07-21T23:27:58.017Z,98095.37
2018-07-21T23:30:26.293Z,98097.44
2018-07-21T23:32:54.586Z,98100.89
2018-07-21T23:35:23.903Z,98095.09
2018-07-21T23:37:52.226Z,98099.41
2018-07-21T23:40:20.548Z,98105.12
2018-07-21T23:42:48.904Z,98096.59
2018-07-21T23:45:17.309Z,98095.67
2018-07-21T23:47:45.595Z,98088.58
2018-07-21T23:50:13.928Z,98085.14
2018-07-21T23:52:42.198Z,98089.80
2018-07-21T23:55:10.527Z,98091.58
2018-07-21T23:57:39.165Z,98091.70
